createdAt,value
2023-02-18T00:00:26.668Z,5.4
2023-02-18T00:01:35.207Z,5.7
2023-02-18T00:02:43.561Z,5.7
2023-02-18T00:03:52.758Z,5.7
2023-02-18T00:05:01.237Z,5.1
2023-02-18T00:06:09.692Z,5.1
2023-02-18T00:07:17.942Z,5.1
2023-02-18T00:08:26.522Z,5.4
2023-02-18T00:09:34.873Z,5.4
2023-02-18T00:10:43.232Z,5.4
2023-02-18T00:11:51.769Z,5.9
2023-02-18T00:13:00.120Z,5.9
2023-02-18T00:14:08.445Z,5.9
2023-02-18T00:15:17.013Z,6
2023-02-18T00:16:25.347Z,6
2023-02-18T00:17:33.675Z,6
2023-02-18T00:18:42.230Z,5.3
2023-02-18T00:19:50.577Z,5.3
2023-02-18T00:20:58.930Z,5.3
2023-02-18T00:22:07.536Z,6.8
2023-02-18T00:23:15.881Z,6.8
2023-02-18T00:24:24.191Z,6.8
2023-02-18T00:25:32.773Z,6.1
2023-02-18T00:26:41.115Z,6.1
2023-02-18T00:27:49.456Z,6.1
2023-02-18T00:28:58.007Z,5.2
2023-02-18T00:30:06.394Z,5.2
2023-02-18T00:31:14.829Z,5.2
2023-02-18T00:32:23.267Z,5.3
2023-02-18T00:33:31.633Z,5.3
2023-02-18T00:34:39.968Z,5.3
2023-02-18T00:35:48.531Z,5.3
2023-02-18T00:36:56.876Z,5.3
2023-02-18T00:38:06.185Z,5.3
2023-02-18T00:39:14.789Z,5.4
2023-02-18T00:40:23.102Z,5.4
2023-02-18T00:41:31.451Z,5.4
2023-02-18T00:42:39.997Z,5.6
2023-02-18T00:43:48.365Z,5.6
2023-02-18T00:44:56.701Z,5.6
2023-02-18T00:46:05.543Z,6.1
2023-02-18T00:47:13.614Z,6.1
2023-02-18T00:48:21.976Z,6.1
2023-02-18T00:49:30.560Z,5.3
2023-02-18T00:50:38.928Z,5.3
2023-02-18T00:51:47.267Z,5.3
2023-02-18T00:52:55.828Z,7.3
2023-02-18T00:54:04.165Z,7.3
2023-02-18T00:55:12.570Z,7.3
2023-02-18T00:56:21.101Z,5.9
2023-02-18T00:57:29.435Z,5.9
2023-02-18T00:58:37.765Z,5.9
2023-02-18T00:59:46.325Z,6.9
2023-02-18T01:00:54.708Z,6.9
2023-02-18T01:02:03.049Z,6.9
2023-02-18T01:03:11.630Z,6.1
2023-02-18T01:04:20.035Z,6.1
2023-02-18T01:05:28.327Z,6.1
2023-02-18T01:06:36.898Z,5.6
2023-02-18T01:07:45.240Z,5.6
2023-02-18T01:08:53.613Z,5.6
2023-02-18T01:10:02.159Z,5.9
2023-02-18T01:11:10.554Z,5.9
2023-02-18T01:12:18.901Z,5.9
2023-02-18T01:13:27.424Z,6.2
2023-02-18T01:14:35.769Z,6.2
2023-02-18T01:15:44.150Z,6.2
2023-02-18T01:16:52.679Z,5.9
2023-02-18T01:18:01.041Z,5.9
2023-02-18T01:19:09.421Z,5.9
2023-02-18T01:20:17.958Z,6.3
2023-02-18T01:21:26.297Z,6.3
2023-02-18T01:22:34.669Z,6.3
2023-02-18T01:23:43.238Z,6.2
2023-02-18T01:24:51.594Z,6.2
2023-02-18T01:25:59.948Z,6.2
2023-02-18T01:27:08.545Z,6.6
2023-02-18T01:28:16.862Z,6.6
2023-02-18T01:29:25.202Z,6.6
2023-02-18T01:30:33.883Z,7
2023-02-18T01:31:42.220Z,7
2023-02-18T01:32:50.476Z,7
2023-02-18T01:33:59.037Z,6.1
2023-02-18T01:35:07.383Z,6.1
2023-02-18T01:36:15.734Z,6.1
2023-02-18T01:37:24.275Z,6.3
2023-02-18T01:38:32.634Z,6.3
2023-02-18T01:39:40.950Z,6.3
2023-02-18T01:40:49.521Z,7.8
2023-02-18T01:41:57.890Z,7.8
2023-02-18T01:43:06.273Z,7.8
2023-02-18T01:44:14.897Z,6.2
2023-02-18T01:45:23.233Z,6.2
2023-02-18T01:46:31.624Z,6.2
2023-02-18T01:47:40.161Z,6.1
2023-02-18T01:48:48.512Z,6.1
2023-02-18T01:49:56.885Z,6.1
2023-02-18T01:51:05.471Z,6.2
2023-02-18T01:52:13.801Z,6.2
2023-02-18T01:53:22.142Z,6.2
2023-02-18T01:54:30.677Z,6.6
2023-02-18T01:55:39.036Z,6.6
2023-02-18T01:56:47.397Z,6.6
2023-02-18T01:57:55.967Z,6.9
2023-02-18T01:59:04.310Z,6.9
2023-02-18T02:00:12.659Z,6.9
2023-02-18T02:01:21.204Z,6
2023-02-18T02:02:29.562Z,6
2023-02-18T02:03:37.923Z,6
2023-02-18T02:04:46.472Z,7.4
2023-02-18T02:05:54.847Z,7.4
2023-02-18T02:07:03.198Z,7.4
2023-02-18T02:08:11.755Z,7.5
2023-02-18T02:09:20.109Z,7.5
2023-02-18T02:10:28.424Z,7.5
2023-02-18T02:11:36.997Z,7.6
2023-02-18T02:12:45.358Z,7.6
2023-02-18T02:13:53.711Z,7.6
2023-02-18T02:15:02.274Z,6.9
2023-02-18T02:16:10.931Z,6.9
2023-02-18T02:17:18.949Z,6.9
2023-02-18T02:18:27.543Z,6.3
2023-02-18T02:19:35.897Z,6.3
2023-02-18T02:20:44.249Z,6.3
2023-02-18T02:21:52.839Z,7
2023-02-18T02:23:01.173Z,7
2023-02-18T02:24:09.507Z,7
2023-02-18T02:25:18.094Z,6.1
2023-02-18T02:26:26.440Z,6.1
2023-02-18T02:27:34.802Z,6.1
2023-02-18T02:28:43.345Z,7.1
2023-02-18T02:29:51.714Z,7.1
2023-02-18T02:31:00.116Z,7.1
2023-02-18T02:32:08.629Z,5.3
2023-02-18T02:33:16.985Z,5.3
2023-02-18T02:34:25.325Z,5.3
2023-02-18T02:35:33.882Z,6.5
2023-02-18T02:36:42.243Z,6.5
2023-02-18T02:37:50.584Z,6.5
2023-02-18T02:38:59.158Z,7.1
2023-02-18T02:40:07.511Z,7.1
2023-02-18T02:41:15.887Z,7.1
2023-02-18T02:42:24.436Z,5.8
2023-02-18T02:43:32.805Z,5.8
2023-02-18T02:44:41.148Z,5.8
2023-02-18T02:45:49.786Z,6.4
2023-02-18T02:46:58.133Z,6.4
2023-02-18T02:48:06.479Z,6.4
2023-02-18T02:49:15.035Z,6
2023-02-18T02:50:23.388Z,6
2023-02-18T02:51:31.749Z,6
2023-02-18T02:52:40.300Z,6
2023-02-18T02:53:48.660Z,6
2023-02-18T02:54:57.053Z,6
2023-02-18T02:56:05.747Z,5.7
2023-02-18T02:57:13.937Z,5.7
2023-02-18T02:58:22.295Z,5.7
2023-02-18T02:59:30.886Z,6.2
2023-02-18T03:00:39.215Z,6.2
2023-02-18T03:01:47.567Z,6.2
2023-02-18T03:02:56.212Z,6.8
2023-02-18T03:04:04.480Z,6.8
2023-02-18T03:05:12.850Z,6.8
2023-02-18T03:06:21.406Z,5.2
2023-02-18T03:07:29.771Z,5.2
2023-02-18T03:08:38.092Z,5.2
2023-02-18T03:09:46.658Z,5.5
2023-02-18T03:10:55.085Z,5.5
2023-02-18T03:12:03.424Z,5.5
2023-02-18T03:13:12.009Z,4.9
2023-02-18T03:14:20.334Z,4.9
2023-02-18T03:15:28.653Z,4.9
2023-02-18T03:16:37.305Z,4.9
2023-02-18T03:17:45.589Z,4.9
2023-02-18T03:18:53.968Z,4.9
2023-02-18T03:20:02.527Z,5.1
2023-02-18T03:21:10.882Z,5.1
2023-02-18T03:22:19.249Z,5.1
2023-02-18T03:23:27.811Z,4.8
2023-02-18T03:24:36.153Z,4.8
2023-02-18T03:25:44.500Z,4.8
2023-02-18T03:26:53.090Z,5.1
2023-02-18T03:28:01.422Z,5.1
2023-02-18T03:29:09.795Z,5.1
2023-02-18T03:30:18.382Z,4.8
2023-02-18T03:31:26.835Z,4.8
2023-02-18T03:32:35.074Z,4.8
2023-02-18T03:33:43.625Z,5.2
2023-02-18T03:34:51.986Z,5.2
2023-02-18T03:36:00.320Z,5.2
2023-02-18T03:37:08.893Z,4.3
2023-02-18T03:38:17.226Z,4.3
2023-02-18T03:39:25.578Z,4.3
2023-02-18T03:40:34.140Z,6.4
2023-02-18T03:41:42.504Z,6.4
2023-02-18T03:42:50.863Z,6.4
2023-02-18T03:43:59.410Z,5.1
2023-02-18T03:45:07.794Z,5.1
2023-02-18T03:46:16.223Z,5.1
2023-02-18T03:47:24.698Z,4.8
2023-02-18T03:48:33.069Z,4.8
2023-02-18T03:49:41.432Z,4.8
2023-02-18T03:50:50.005Z,5.8
2023-02-18T03:51:58.337Z,5.8
2023-02-18T03:53:06.687Z,5.8
2023-02-18T03:54:15.229Z,5.3
2023-02-18T03:55:23.601Z,5.3
2023-02-18T03:56:31.990Z,5.3
2023-02-18T03:57:40.546Z,5.7
2023-02-18T03:58:48.896Z,5.7
2023-02-18T03:59:57.275Z,5.7
2023-02-18T04:01:05.921Z,5.4
2023-02-18T04:02:14.199Z,5.4
2023-02-18T04:03:22.585Z,5.4
2023-02-18T04:04:31.224Z,5.4
2023-02-18T04:05:39.521Z,5.4
2023-02-18T04:06:47.916Z,5.4
2023-02-18T04:07:56.443Z,6.3
2023-02-18T04:09:04.799Z,6.3
2023-02-18T04:10:13.157Z,6.3
2023-02-18T04:11:21.734Z,5.6
2023-02-18T04:12:30.059Z,5.6
2023-02-18T04:13:38.419Z,5.6
2023-02-18T04:14:46.960Z,6.1
2023-02-18T04:15:55.307Z,6.1
2023-02-18T04:17:03.674Z,6.1
2023-02-18T04:18:12.233Z,5.8
2023-02-18T04:19:20.574Z,5.8
2023-02-18T04:20:28.949Z,5.8
2023-02-18T04:21:37.486Z,6.6
2023-02-18T04:22:45.877Z,6.6
2023-02-18T04:23:54.203Z,6.6
2023-02-18T04:25:02.762Z,4.7
2023-02-18T04:26:11.312Z,4.7
2023-02-18T04:27:19.459Z,4.7
2023-02-18T04:28:28.007Z,6
2023-02-18T04:29:36.340Z,6
2023-02-18T04:30:44.832Z,6
2023-02-18T04:31:53.299Z,4.8
2023-02-18T04:33:01.596Z,4.8
2023-02-18T04:34:09.956Z,4.8
2023-02-18T04:35:18.512Z,5.1
2023-02-18T04:36:26.863Z,5.1
2023-02-18T04:37:35.215Z,5.1
2023-02-18T04:38:43.791Z,5
2023-02-18T04:39:52.136Z,5
2023-02-18T04:41:00.520Z,5
2023-02-18T04:42:09.226Z,4.7
2023-02-18T04:43:17.394Z,4.7
2023-02-18T04:44:25.732Z,4.7
2023-02-18T04:45:34.289Z,4.6
2023-02-18T04:46:42.654Z,4.6
2023-02-18T04:47:51.034Z,4.6
2023-02-18T04:48:59.562Z,5.9
2023-02-18T04:50:07.923Z,5.9
2023-02-18T04:51:16.291Z,5.9
2023-02-18T04:52:24.860Z,4.7
2023-02-18T04:53:33.230Z,4.7
2023-02-18T04:54:41.576Z,4.7
2023-02-18T04:55:50.114Z,5.4
2023-02-18T04:56:58.477Z,5.4
2023-02-18T04:58:06.815Z,5.4
2023-02-18T04:59:15.391Z,3.9
2023-02-18T05:00:23.726Z,3.9
2023-02-18T05:01:32.145Z,3.9
2023-02-18T05:02:40.691Z,3.5
2023-02-18T05:03:49.076Z,3.5
2023-02-18T05:04:57.378Z,3.5
2023-02-18T05:06:06.090Z,5.7
2023-02-18T05:07:14.334Z,5.7
2023-02-18T05:08:22.713Z,5.7
2023-02-18T05:09:31.262Z,4
2023-02-18T05:10:39.634Z,4
2023-02-18T05:11:47.965Z,4
2023-02-18T05:12:56.537Z,5.3
2023-02-18T05:14:04.882Z,5.3
2023-02-18T05:15:13.240Z,5.3
2023-02-18T05:16:21.801Z,4.2
2023-02-18T05:17:30.174Z,4.2
2023-02-18T05:18:38.502Z,4.2
2023-02-18T05:19:47.106Z,6
2023-02-18T05:20:55.468Z,6
2023-02-18T05:22:03.839Z,6
2023-02-18T05:23:12.384Z,4.8
2023-02-18T05:24:20.769Z,4.8
2023-02-18T05:25:29.110Z,4.8
2023-02-18T05:26:37.720Z,4.8
2023-02-18T05:27:46.034Z,4.8
2023-02-18T05:28:54.395Z,4.8
2023-02-18T05:30:03.021Z,5.8
2023-02-18T05:31:11.415Z,5.8
2023-02-18T05:32:19.636Z,5.8
2023-02-18T05:33:28.198Z,4.9
2023-02-18T05:34:36.519Z,4.9
2023-02-18T05:35:44.867Z,4.9
2023-02-18T05:36:53.444Z,5.9
2023-02-18T05:38:01.779Z,5.9
2023-02-18T05:39:10.158Z,5.9
2023-02-18T05:40:18.725Z,6.6
2023-02-18T05:41:27.073Z,6.6
2023-02-18T05:42:35.422Z,6.6
2023-02-18T05:43:43.954Z,6.6
2023-02-18T05:44:52.317Z,6.6
2023-02-18T05:46:00.726Z,6.6
2023-02-18T05:47:11.321Z,6.1
2023-02-18T05:48:17.595Z,6.1
2023-02-18T05:49:25.864Z,6.1
2023-02-18T05:50:34.396Z,11.2
2023-02-18T05:51:42.722Z,11.2
2023-02-18T05:52:51.045Z,11.2
2023-02-18T05:53:59.570Z,5.4
2023-02-18T05:55:07.897Z,5.4
2023-02-18T05:56:16.219Z,5.4
2023-02-18T05:57:24.857Z,5.7
2023-02-18T05:58:33.185Z,5.7
2023-02-18T05:59:41.474Z,5.7
2023-02-18T06:00:50.013Z,5.4
2023-02-18T06:01:58.347Z,5.4
2023-02-18T06:03:06.661Z,5.4
2023-02-18T06:04:15.177Z,8.3
2023-02-18T06:05:23.507Z,8.3
2023-02-18T06:06:31.843Z,8.3
2023-02-18T06:07:40.382Z,5.5
2023-02-18T06:08:48.720Z,5.5
2023-02-18T06:09:57.029Z,5.5
2023-02-18T06:11:05.546Z,11.7
2023-02-18T06:12:13.882Z,11.7
2023-02-18T06:13:22.195Z,11.7
2023-02-18T06:14:30.746Z,5.9
2023-02-18T06:15:39.055Z,5.9
2023-02-18T06:16:47.398Z,5.9
2023-02-18T06:17:55.907Z,10.1
2023-02-18T06:19:04.234Z,10.1
2023-02-18T06:20:12.555Z,10.1
2023-02-18T06:21:21.084Z,10.6
2023-02-18T06:22:29.402Z,10.6
2023-02-18T06:23:37.721Z,10.6
2023-02-18T06:24:46.257Z,7
2023-02-18T06:25:54.602Z,7
2023-02-18T06:27:02.962Z,7
2023-02-18T06:28:11.513Z,4.9
2023-02-18T06:29:19.834Z,4.9
2023-02-18T06:30:28.217Z,4.9
2023-02-18T06:31:36.775Z,5.9
2023-02-18T06:32:45.017Z,5.9
2023-02-18T06:33:53.340Z,5.9
2023-02-18T06:35:01.861Z,4.2
2023-02-18T06:36:10.584Z,4.2
2023-02-18T06:37:18.557Z,4.2
2023-02-18T06:38:27.127Z,5.5
2023-02-18T06:39:35.480Z,5.5
2023-02-18T06:40:43.790Z,5.5
2023-02-18T06:41:52.349Z,8.4
2023-02-18T06:43:00.686Z,8.4
2023-02-18T06:44:09.040Z,8.4
2023-02-18T06:45:17.548Z,5.7
2023-02-18T06:46:26.011Z,5.7
2023-02-18T06:47:34.221Z,5.7
2023-02-18T06:48:42.745Z,4.5
2023-02-18T06:49:51.096Z,4.5
2023-02-18T06:50:59.408Z,4.5
2023-02-18T06:52:07.943Z,4.1
2023-02-18T06:53:16.271Z,4.1
2023-02-18T06:54:24.579Z,4.1
2023-02-18T06:55:33.101Z,3.5
2023-02-18T06:56:41.426Z,3.5
2023-02-18T06:57:49.760Z,3.5
2023-02-18T06:58:58.278Z,3.8
2023-02-18T07:00:06.613Z,3.8
2023-02-18T07:01:15.027Z,3.8
2023-02-18T07:02:23.517Z,4.3
2023-02-18T07:03:31.842Z,4.3
2023-02-18T07:04:40.133Z,4.3
2023-02-18T07:05:48.666Z,3.2
2023-02-18T07:06:57.008Z,3.2
2023-02-18T07:08:05.322Z,3.2
2023-02-18T07:09:13.867Z,3.2
2023-02-18T07:10:22.208Z,3.2
2023-02-18T07:11:30.555Z,3.2
2023-02-18T07:12:39.089Z,2.7
2023-02-18T07:13:47.440Z,2.7
2023-02-18T07:14:55.762Z,2.7
2023-02-18T07:16:04.373Z,2.6
2023-02-18T07:17:12.638Z,2.6
2023-02-18T07:18:20.970Z,2.6
2023-02-18T07:19:29.462Z,5.5
2023-02-18T07:20:37.773Z,5.5
2023-02-18T07:21:46.090Z,5.5
2023-02-18T07:22:54.649Z,4.4
2023-02-18T07:24:02.970Z,4.4
2023-02-18T07:25:11.272Z,4.4
2023-02-18T07:26:19.802Z,2.4
2023-02-18T07:27:28.124Z,2.4
2023-02-18T07:28:36.454Z,2.4
2023-02-18T07:29:44.961Z,2
2023-02-18T07:30:53.322Z,2
2023-02-18T07:32:01.650Z,2
2023-02-18T07:33:10.168Z,2.6
2023-02-18T07:34:18.512Z,2.6
2023-02-18T07:35:26.825Z,2.6
2023-02-18T07:36:35.359Z,4.1
2023-02-18T07:37:43.696Z,4.1
2023-02-18T07:38:52.008Z,4.1
2023-02-18T07:40:00.529Z,1.9
2023-02-18T07:41:08.855Z,1.9
2023-02-18T07:42:17.177Z,1.9
2023-02-18T07:43:25.734Z,2.3
2023-02-18T07:44:34.046Z,2.3
2023-02-18T07:45:42.399Z,2.3
2023-02-18T07:46:50.896Z,2.9
2023-02-18T07:47:59.319Z,2.9
2023-02-18T07:49:07.700Z,2.9
2023-02-18T07:50:16.276Z,1.4
2023-02-18T07:51:24.586Z,1.4
2023-02-18T07:52:32.898Z,1.4
2023-02-18T07:53:41.460Z,2.2
2023-02-18T07:54:49.770Z,2.2
2023-02-18T07:55:58.076Z,2.2
2023-02-18T07:57:06.618Z,2
2023-02-18T07:58:14.958Z,2
2023-02-18T07:59:23.321Z,2
2023-02-18T08:00:31.959Z,1.8
2023-02-18T08:01:40.778Z,1.8
2023-02-18T08:02:49.962Z,1.8
2023-02-18T08:03:58.610Z,1.3
2023-02-18T08:05:06.937Z,1.3
2023-02-18T08:06:15.358Z,1.3
2023-02-18T08:07:23.857Z,1.3
2023-02-18T08:08:32.207Z,1.3
2023-02-18T08:09:40.524Z,1.3
2023-02-18T08:10:49.070Z,1.7
2023-02-18T08:11:57.411Z,1.7
2023-02-18T08:13:05.745Z,1.7
2023-02-18T08:14:14.262Z,2.3
2023-02-18T08:15:22.620Z,2.3
2023-02-18T08:16:31.102Z,2.3
2023-02-18T08:17:39.484Z,1.9
2023-02-18T08:18:47.841Z,1.9
2023-02-18T08:19:56.139Z,1.9
2023-02-18T08:21:04.692Z,4.3
2023-02-18T08:22:13.083Z,4.3
2023-02-18T08:23:21.392Z,4.3
2023-02-18T08:24:29.921Z,1.6
2023-02-18T08:25:38.224Z,1.6
2023-02-18T08:26:59.670Z,1.6
2023-02-18T08:27:55.131Z,1.9
2023-02-18T08:29:03.511Z,1.9
2023-02-18T08:30:11.896Z,1.9
2023-02-18T08:31:20.494Z,1.2
2023-02-18T08:32:28.738Z,1.2
2023-02-18T08:33:37.078Z,1.2
2023-02-18T08:34:45.641Z,0.7
2023-02-18T08:35:53.970Z,0.7
2023-02-18T08:37:02.315Z,0.7
2023-02-18T08:38:10.858Z,1
2023-02-18T08:39:19.164Z,1
2023-02-18T08:40:27.499Z,1
2023-02-18T08:41:36.069Z,1.2
2023-02-18T08:42:44.421Z,1.2
2023-02-18T08:43:52.742Z,1.2
2023-02-18T08:45:01.294Z,9
2023-02-18T08:46:15.105Z,9
2023-02-18T08:48:13.549Z,9
2023-02-18T08:48:26.503Z,1.7
2023-02-18T08:49:34.882Z,1.7
2023-02-18T08:50:43.215Z,1.7
2023-02-18T08:51:51.796Z,3.3
2023-02-18T08:53:00.116Z,3.3
2023-02-18T08:54:08.506Z,3.3
2023-02-18T08:55:17.018Z,1.8
2023-02-18T08:56:25.360Z,1.8
2023-02-18T08:57:33.715Z,1.8
2023-02-18T08:58:42.274Z,3.7
2023-02-18T08:59:50.643Z,3.7
2023-02-18T09:00:58.994Z,3.7
2023-02-18T09:02:07.550Z,8.3
2023-02-18T09:03:15.902Z,8.3
2023-02-18T09:04:24.269Z,8.3
2023-02-18T09:05:32.759Z,6.8
2023-02-18T09:06:41.108Z,6.8
2023-02-18T09:07:49.432Z,6.8
2023-02-18T09:08:57.970Z,19.299999
2023-02-18T09:10:06.342Z,19.299999
2023-02-18T09:11:14.683Z,19.299999
2023-02-18T09:12:23.229Z,12.1
2023-02-18T09:13:31.557Z,12.1
2023-02-18T09:14:39.928Z,12.1
2023-02-18T09:15:48.441Z,7.1
2023-02-18T09:16:56.737Z,7.1
2023-02-18T09:18:05.139Z,7.1
2023-02-18T09:19:13.668Z,2.5
2023-02-18T09:20:21.987Z,2.5
2023-02-18T09:21:30.320Z,2.5
2023-02-18T09:22:38.839Z,2.9
2023-02-18T09:23:47.200Z,2.9
2023-02-18T09:24:55.502Z,2.9
2023-02-18T09:26:04.068Z,2.9
2023-02-18T09:27:12.413Z,2.9
2023-02-18T09:28:20.785Z,2.9
2023-02-18T09:29:29.398Z,8.2
2023-02-18T09:30:37.807Z,8.2
2023-02-18T09:31:46.287Z,8.2
2023-02-18T09:32:54.643Z,2.3
2023-02-18T09:34:03.019Z,2.3
2023-02-18T09:35:11.372Z,2.3
2023-02-18T09:36:19.931Z,5
2023-02-18T09:37:28.272Z,5
2023-02-18T09:38:36.683Z,5
2023-02-18T09:39:45.236Z,8.3
2023-02-18T09:40:53.604Z,8.3
2023-02-18T09:42:01.993Z,8.3
2023-02-18T09:43:10.503Z,4.4
2023-02-18T09:44:18.869Z,4.4
2023-02-18T09:45:27.213Z,4.4
2023-02-18T09:46:35.815Z,4.6
2023-02-18T09:47:44.126Z,4.6
2023-02-18T09:48:52.483Z,4.6
2023-02-18T09:50:01.056Z,4.3
2023-02-18T09:51:09.660Z,4.3
2023-02-18T09:52:17.754Z,4.3
2023-02-18T09:53:26.299Z,6.5
2023-02-18T09:54:34.660Z,6.5
2023-02-18T09:55:43.004Z,6.5
2023-02-18T09:56:51.577Z,10
2023-02-18T09:57:59.944Z,10
2023-02-18T09:59:08.290Z,10
2023-02-18T10:00:16.831Z,5.9
2023-02-18T10:01:25.188Z,5.9
2023-02-18T10:02:33.511Z,5.9
2023-02-18T10:03:42.067Z,7.9
2023-02-18T10:04:50.411Z,7.9
2023-02-18T10:05:58.762Z,7.9
2023-02-18T10:07:07.341Z,8.5
2023-02-18T10:08:15.653Z,8.5
2023-02-18T10:09:24.000Z,8.5
2023-02-18T10:10:32.556Z,9.4
2023-02-18T10:11:40.944Z,9.4
2023-02-18T10:12:49.245Z,9.4
2023-02-18T10:13:57.821Z,9.5
2023-02-18T10:15:06.120Z,9.5
2023-02-18T10:16:14.513Z,9.5
2023-02-18T10:17:23.017Z,11.7
2023-02-18T10:18:31.395Z,11.7
2023-02-18T10:19:39.687Z,11.7
2023-02-18T10:20:48.229Z,4.4
2023-02-18T10:21:56.566Z,4.4
2023-02-18T10:23:04.945Z,4.4
2023-02-18T10:24:13.543Z,5.7
2023-02-18T10:25:21.924Z,5.7
2023-02-18T10:26:30.258Z,5.7
2023-02-18T10:27:38.804Z,5
2023-02-18T10:28:47.164Z,5
2023-02-18T10:29:55.545Z,5
2023-02-18T10:31:04.353Z,5
2023-02-18T10:32:12.662Z,5
2023-02-18T10:33:21.004Z,5
2023-02-18T10:34:29.580Z,5
2023-02-18T10:35:37.937Z,5
2023-02-18T10:36:46.303Z,5
2023-02-18T10:37:54.835Z,4.4
2023-02-18T10:39:03.197Z,4.4
2023-02-18T10:40:11.544Z,4.4
2023-02-18T10:41:20.091Z,7.2
2023-02-18T10:42:28.462Z,7.2
2023-02-18T10:43:36.789Z,7.2
2023-02-18T10:44:45.364Z,4.5
2023-02-18T10:45:53.743Z,4.5
2023-02-18T10:47:02.061Z,4.5
2023-02-18T10:48:10.601Z,5.2
2023-02-18T10:49:18.937Z,5.2
2023-02-18T10:50:27.296Z,5.2
2023-02-18T10:51:35.894Z,5.2
2023-02-18T10:52:44.223Z,5.2
2023-02-18T10:53:52.549Z,5.2
2023-02-18T10:55:01.160Z,5.3
2023-02-18T10:56:09.492Z,5.3
2023-02-18T10:57:17.805Z,5.3
2023-02-18T10:58:26.329Z,7.7
2023-02-18T10:59:34.671Z,7.7
2023-02-18T11:00:42.980Z,7.7
2023-02-18T11:01:51.566Z,10.9
2023-02-18T11:02:59.886Z,10.9
2023-02-18T11:04:08.249Z,10.9
2023-02-18T11:05:16.812Z,9.4
2023-02-18T11:06:25.210Z,9.4
2023-02-18T11:07:33.556Z,9.4
2023-02-18T11:08:42.101Z,8.6
2023-02-18T11:09:50.496Z,8.6
2023-02-18T11:10:58.825Z,8.6
2023-02-18T11:12:08.531Z,6.2
2023-02-18T11:13:15.741Z,6.2
2023-02-18T11:14:24.098Z,6.2
2023-02-18T11:15:32.678Z,7.4
2023-02-18T11:16:41.029Z,7.4
2023-02-18T11:17:49.394Z,7.4
2023-02-18T11:18:57.944Z,6.3
2023-02-18T11:20:06.326Z,6.3
2023-02-18T11:21:14.676Z,6.3
2023-02-18T11:22:23.231Z,5.4
2023-02-18T11:23:31.597Z,5.4
2023-02-18T11:24:39.945Z,5.4
2023-02-18T11:25:48.538Z,5.3
2023-02-18T11:26:56.882Z,5.3
2023-02-18T11:28:05.241Z,5.3
2023-02-18T11:29:13.803Z,5.7
2023-02-18T11:30:22.209Z,5.7
2023-02-18T11:31:30.668Z,5.7
2023-02-18T11:32:39.029Z,8.2
2023-02-18T11:33:47.373Z,8.2
2023-02-18T11:34:55.681Z,8.2
2023-02-18T11:36:04.210Z,6.2
2023-02-18T11:37:12.520Z,6.2
2023-02-18T11:38:20.835Z,6.2
2023-02-18T11:39:29.377Z,6.1
2023-02-18T11:40:37.700Z,6.1
2023-02-18T11:41:46.020Z,6.1
2023-02-18T11:42:54.552Z,7.6
2023-02-18T11:44:02.868Z,7.6
2023-02-18T11:45:11.207Z,7.6
2023-02-18T11:46:19.817Z,5.8
2023-02-18T11:47:28.136Z,5.8
2023-02-18T11:48:36.456Z,5.8
2023-02-18T11:49:45.029Z,4.6
2023-02-18T11:50:53.386Z,4.6
2023-02-18T11:52:01.732Z,4.6
2023-02-18T11:53:10.305Z,6.8
2023-02-18T11:54:18.640Z,6.8
2023-02-18T11:55:26.984Z,6.8
2023-02-18T11:56:35.556Z,4.2
2023-02-18T11:57:43.896Z,4.2
2023-02-18T11:58:52.241Z,4.2
2023-02-18T12:00:00.835Z,3.2
2023-02-18T12:01:09.441Z,3.2
2023-02-18T12:02:17.565Z,3.2
2023-02-18T12:03:26.101Z,3.3
2023-02-18T12:04:34.459Z,3.3
2023-02-18T12:05:42.849Z,3.3
2023-02-18T12:06:51.396Z,3.6
2023-02-18T12:07:59.737Z,3.6
2023-02-18T12:09:08.108Z,3.6
2023-02-18T12:10:16.710Z,4.3
2023-02-18T12:11:25.077Z,4.3
2023-02-18T12:12:33.460Z,4.3
2023-02-18T12:13:42.025Z,2.8
2023-02-18T12:14:50.409Z,2.8
2023-02-18T12:15:58.900Z,2.8
2023-02-18T12:17:07.452Z,2.6
2023-02-18T12:18:15.791Z,2.6
2023-02-18T12:19:24.118Z,2.6
2023-02-18T12:20:32.668Z,2.7
2023-02-18T12:21:41.090Z,2.7
2023-02-18T12:22:49.412Z,2.7
2023-02-18T12:23:57.972Z,2.4
2023-02-18T12:25:06.317Z,2.4
2023-02-18T12:26:14.674Z,2.4
2023-02-18T12:27:23.232Z,2.6
2023-02-18T12:28:31.601Z,2.6
2023-02-18T12:29:39.963Z,2.6
2023-02-18T12:30:48.565Z,2.5
2023-02-18T12:31:56.990Z,2.5
2023-02-18T12:33:05.316Z,2.5
2023-02-18T12:34:13.911Z,1.8
2023-02-18T12:35:22.279Z,1.8
2023-02-18T12:36:30.644Z,1.8
2023-02-18T12:37:39.236Z,2.4
2023-02-18T12:38:47.782Z,2.4
2023-02-18T12:39:56.237Z,2.4
2023-02-18T12:41:04.873Z,1.2
2023-02-18T12:42:13.246Z,1.2
2023-02-18T12:43:21.598Z,1.2
2023-02-18T12:44:30.198Z,2.6
2023-02-18T12:45:38.609Z,2.6
2023-02-18T12:46:46.930Z,2.6
2023-02-18T12:47:55.505Z,2.5
2023-02-18T12:49:03.878Z,2.5
2023-02-18T12:50:12.305Z,2.5
2023-02-18T12:51:20.856Z,2
2023-02-18T12:52:29.199Z,2
2023-02-18T12:53:37.574Z,2
2023-02-18T12:54:46.137Z,1.9
2023-02-18T12:55:54.510Z,1.9
2023-02-18T12:57:02.863Z,1.9
2023-02-18T12:58:11.415Z,2.3
2023-02-18T12:59:19.772Z,2.3
2023-02-18T13:00:28.295Z,2.3
2023-02-18T13:01:36.756Z,2.6
2023-02-18T13:02:45.097Z,2.6
2023-02-18T13:03:53.450Z,2.6
2023-02-18T13:05:02.055Z,3.6
2023-02-18T13:06:10.814Z,3.6
2023-02-18T13:07:18.829Z,3.6
2023-02-18T13:08:27.415Z,3.6
2023-02-18T13:09:35.829Z,3.6
2023-02-18T13:10:44.188Z,3.6
2023-02-18T13:11:52.780Z,3.2
2023-02-18T13:13:01.130Z,3.2
2023-02-18T13:14:09.518Z,3.2
2023-02-18T13:15:18.109Z,3.7
2023-02-18T13:16:26.480Z,3.7
2023-02-18T13:17:34.845Z,3.7
2023-02-18T13:18:43.415Z,2.9
2023-02-18T13:19:51.799Z,2.9
2023-02-18T13:21:00.174Z,2.9
2023-02-18T13:22:08.757Z,13.8
2023-02-18T13:23:17.095Z,13.8
2023-02-18T13:24:25.501Z,13.8
2023-02-18T13:25:34.114Z,12
2023-02-18T13:26:42.434Z,12
2023-02-18T13:27:50.849Z,12
2023-02-18T13:28:59.381Z,10.6
2023-02-18T13:30:07.744Z,10.6
2023-02-18T13:31:16.195Z,10.6
2023-02-18T13:32:24.700Z,3.2
2023-02-18T13:33:33.054Z,3.2
2023-02-18T13:34:41.417Z,3.2
2023-02-18T13:35:50.010Z,4.7
2023-02-18T13:36:58.401Z,4.7
2023-02-18T13:38:06.759Z,4.7
2023-02-18T13:39:15.321Z,3.6
2023-02-18T13:40:23.709Z,3.6
2023-02-18T13:41:32.133Z,3.6
2023-02-18T13:42:40.666Z,3
2023-02-18T13:43:49.018Z,3
2023-02-18T13:44:57.367Z,3
2023-02-18T13:46:06.003Z,1.6
2023-02-18T13:47:14.372Z,1.6
2023-02-18T13:48:22.739Z,1.6
2023-02-18T13:49:31.343Z,2.1
2023-02-18T13:50:39.692Z,2.1
2023-02-18T13:51:48.049Z,2.1
2023-02-18T13:52:56.619Z,3.1
2023-02-18T13:54:04.964Z,3.1
2023-02-18T13:55:13.315Z,3.1
2023-02-18T13:56:21.905Z,3.5
2023-02-18T13:57:30.305Z,3.5
2023-02-18T13:58:38.684Z,3.5
2023-02-18T13:59:47.257Z,1.3
2023-02-18T14:00:55.744Z,1.3
2023-02-18T14:02:04.056Z,1.3
2023-02-18T14:03:12.604Z,3.2
2023-02-18T14:04:20.978Z,3.2
2023-02-18T14:05:29.323Z,3.2
2023-02-18T14:06:39.089Z,2.4
2023-02-18T14:07:46.268Z,2.4
2023-02-18T14:08:54.660Z,2.4
2023-02-18T14:10:03.266Z,3.3
2023-02-18T14:11:11.651Z,3.3
2023-02-18T14:12:19.978Z,3.3
2023-02-18T14:13:28.571Z,1.3
2023-02-18T14:14:36.966Z,1.3
2023-02-18T14:15:45.430Z,1.3
2023-02-18T14:16:53.975Z,1.3
2023-02-18T14:18:02.322Z,1.3
2023-02-18T14:19:10.694Z,1.3
2023-02-18T14:20:19.269Z,2.9
2023-02-18T14:21:27.681Z,2.9
2023-02-18T14:22:35.957Z,2.9
2023-02-18T14:23:44.526Z,1.7
2023-02-18T14:24:52.868Z,1.7
2023-02-18T14:26:01.250Z,1.7
2023-02-18T14:27:09.790Z,1.5
2023-02-18T14:28:18.149Z,1.5
2023-02-18T14:29:26.568Z,1.5
2023-02-18T15:03:20.915Z,0
2023-02-18T15:04:29.259Z,0
2023-02-18T15:05:37.663Z,0
2023-02-18T15:06:46.228Z,4.3
2023-02-18T15:07:54.574Z,4.3
2023-02-18T15:09:02.958Z,4.3
2023-02-18T15:10:11.485Z,3.1
2023-02-18T15:11:19.861Z,3.1
2023-02-18T15:12:28.206Z,3.1
2023-02-18T15:13:36.793Z,4.7
2023-02-18T15:14:45.127Z,4.7
2023-02-18T15:15:53.515Z,4.7
2023-02-18T15:17:02.072Z,10.9
2023-02-18T15:18:10.432Z,10.9
2023-02-18T15:19:18.868Z,10.9
2023-02-18T15:20:27.395Z,8.7
2023-02-18T15:21:35.856Z,8.7
2023-02-18T15:22:44.214Z,8.7
2023-02-18T15:23:52.837Z,2.9
2023-02-18T15:25:01.190Z,2.9
2023-02-18T15:26:09.749Z,2.9
2023-02-18T15:27:18.137Z,2.5
2023-02-18T15:28:26.468Z,2.5
2023-02-18T15:29:34.844Z,2.5
2023-02-18T15:30:43.404Z,3
2023-02-18T15:31:51.859Z,3
2023-02-18T15:33:00.120Z,3
2023-02-18T15:34:08.655Z,1.7
2023-02-18T15:35:17.042Z,1.7
2023-02-18T15:36:25.361Z,1.7
2023-02-18T15:37:33.912Z,2
2023-02-18T15:38:42.268Z,2
2023-02-18T15:39:50.671Z,2
2023-02-18T15:40:59.220Z,1.8
2023-02-18T15:42:07.585Z,1.8
2023-02-18T15:43:15.953Z,1.8
2023-02-18T15:44:24.504Z,2.3
2023-02-18T15:45:32.844Z,2.3
2023-02-18T15:46:41.249Z,2.3
2023-02-18T15:47:49.787Z,1.9
2023-02-18T15:48:58.122Z,1.9
2023-02-18T15:50:06.466Z,1.9
2023-02-18T15:51:17.607Z,1.7
2023-02-18T15:52:23.360Z,1.7
2023-02-18T15:53:31.724Z,1.7
2023-02-18T15:54:40.292Z,1.7
2023-02-18T15:55:48.702Z,1.7
2023-02-18T15:56:57.012Z,1.7
2023-02-18T15:58:05.551Z,2.8
2023-02-18T15:59:13.903Z,2.8
2023-02-18T16:00:22.323Z,2.8
2023-02-18T16:01:30.926Z,1.4
2023-02-18T16:02:39.237Z,1.4
2023-02-18T16:03:47.575Z,1.4
2023-02-18T16:04:56.150Z,2.4
2023-02-18T16:06:04.513Z,2.4
2023-02-18T16:07:12.901Z,2.4
2023-02-18T16:08:21.432Z,1.5
2023-02-18T16:09:29.779Z,1.5
2023-02-18T16:10:38.144Z,1.5
2023-02-18T16:11:46.714Z,1.6
2023-02-18T16:12:55.065Z,1.6
2023-02-18T16:14:03.394Z,1.6
2023-02-18T16:15:11.944Z,1.4
2023-02-18T16:16:20.304Z,1.4
2023-02-18T16:17:28.657Z,1.4
2023-02-18T16:18:37.195Z,0.7